createdAt,value
2022-10-04T00:00:13.060Z,14.03
2022-10-04T00:01:13.039Z,14.03
2022-10-04T00:02:13.078Z,14.01
2022-10-04T00:03:13.092Z,13.96
2022-10-04T00:04:12.988Z,13.96
2022-10-04T00:05:12.989Z,14.03
2022-10-04T00:06:12.947Z,14.00
2022-10-04T00:07:12.935Z,13.86
2022-10-04T00:08:12.912Z,13.82
2022-10-04T00:09:12.892Z,13.82
2022-10-04T00:10:12.880Z,13.83
2022-10-04T00:11:12.859Z,13.93
2022-10-04T00:12:12.845Z,13.90
2022-10-04T00:13:12.821Z,13.90
2022-10-04T00:14:12.801Z,13.85
2022-10-04T00:15:12.781Z,13.97
2022-10-04T00:16:12.810Z,13.94
2022-10-04T00:17:12.745Z,13.90
2022-10-04T00:18:12.728Z,13.85
2022-10-04T00:19:12.708Z,13.93
2022-10-04T00:20:12.689Z,13.97
2022-10-04T00:21:12.690Z,13.97
2022-10-04T00:22:12.677Z,13.86
2022-10-04T00:23:12.641Z,14.00
2022-10-04T00:24:12.612Z,13.96
2022-10-04T00:25:12.594Z,14.00
2022-10-04T00:26:12.581Z,13.94
2022-10-04T00:27:12.563Z,13.96
2022-10-04T00:28:12.577Z,13.97
2022-10-04T00:29:12.524Z,13.80
2022-10-04T00:30:12.504Z,13.96
2022-10-04T00:31:12.535Z,13.82
2022-10-04T00:32:12.471Z,13.83
2022-10-04T00:33:12.455Z,13.82
2022-10-04T00:34:12.430Z,13.86
2022-10-04T00:35:12.413Z,13.83
2022-10-04T00:36:12.398Z,13.91
2022-10-04T00:37:12.395Z,13.88
2022-10-04T00:38:12.356Z,13.97
2022-10-04T00:39:12.341Z,14.00
2022-10-04T00:40:12.322Z,13.98
2022-10-04T00:41:12.304Z,14.00
2022-10-04T00:42:12.285Z,14.00
2022-10-04T00:43:12.265Z,13.97
2022-10-04T00:44:12.244Z,14.00
2022-10-04T00:45:12.227Z,13.91
2022-10-04T00:46:12.236Z,13.79
2022-10-04T00:47:12.188Z,13.76
2022-10-04T00:48:12.166Z,13.75
2022-10-04T00:49:12.155Z,13.71
2022-10-04T00:50:12.133Z,13.71
2022-10-04T00:51:12.118Z,13.68
2022-10-04T00:52:12.098Z,13.68
2022-10-04T00:53:12.102Z,13.57
2022-10-04T00:54:12.061Z,13.57
2022-10-04T00:55:12.038Z,13.51
2022-10-04T00:56:12.019Z,13.42
2022-10-04T00:57:12.009Z,13.42
2022-10-04T00:58:11.984Z,13.54
2022-10-04T00:59:11.964Z,13.40
2022-10-04T01:00:11.947Z,13.47
2022-10-04T01:01:11.986Z,13.54
2022-10-04T01:02:11.957Z,13.46
2022-10-04T01:03:11.899Z,13.51
2022-10-04T01:04:11.868Z,13.58
2022-10-04T01:05:11.859Z,13.55
2022-10-04T01:06:11.837Z,13.63
2022-10-04T01:07:11.819Z,13.54
2022-10-04T01:08:11.798Z,13.61
2022-10-04T01:09:11.801Z,13.61
2022-10-04T01:10:11.762Z,13.72
2022-10-04T01:11:11.742Z,13.75
2022-10-04T01:12:11.726Z,13.61
2022-10-04T01:13:11.701Z,13.63
2022-10-04T01:14:11.685Z,13.54
2022-10-04T01:15:11.668Z,13.61
2022-10-04T01:16:11.828Z,13.54
2022-10-04T01:17:11.632Z,13.60
2022-10-04T01:18:11.611Z,13.55
2022-10-04T01:19:11.595Z,13.54
2022-10-04T01:20:11.574Z,13.54
2022-10-04T01:21:11.560Z,13.58
2022-10-04T01:22:11.542Z,13.58
2022-10-04T01:23:11.517Z,13.61
2022-10-04T01:24:11.497Z,13.64
2022-10-04T01:25:11.499Z,13.61
2022-10-04T01:26:11.461Z,13.61
2022-10-04T01:27:11.446Z,13.67
2022-10-04T01:28:11.468Z,13.67
2022-10-04T01:29:11.410Z,13.76
2022-10-04T01:30:11.387Z,13.79
2022-10-04T01:31:11.430Z,13.78
2022-10-04T01:32:11.351Z,13.75
2022-10-04T01:33:11.332Z,13.82
2022-10-04T01:34:11.313Z,13.85
2022-10-04T01:35:11.295Z,13.85
2022-10-04T01:36:11.273Z,13.85
2022-10-04T01:37:11.254Z,13.88
2022-10-04T01:38:11.236Z,13.86
2022-10-04T01:39:11.218Z,13.85
2022-10-04T01:40:11.209Z,13.82
2022-10-04T01:41:11.204Z,13.83
2022-10-04T01:42:11.164Z,13.86
2022-10-04T01:43:11.144Z,13.80
2022-10-04T01:44:11.123Z,13.88
2022-10-04T01:45:11.112Z,13.68
2022-10-04T01:46:11.184Z,13.61
2022-10-04T01:47:11.078Z,13.65
2022-10-04T01:48:11.052Z,13.75
2022-10-04T01:49:11.031Z,13.61
2022-10-04T01:50:15.577Z,13.55
2022-10-04T01:51:11.000Z,13.64
2022-10-04T01:52:10.973Z,13.60
2022-10-04T01:53:10.958Z,13.64
2022-10-04T01:54:10.940Z,13.72
2022-10-04T01:55:10.924Z,13.73
2022-10-04T01:56:10.903Z,13.75
2022-10-04T01:57:10.903Z,13.71
2022-10-04T01:58:10.872Z,13.79
2022-10-04T01:59:10.852Z,13.82
2022-10-04T02:00:10.830Z,13.76
2022-10-04T02:01:10.885Z,13.83
2022-10-04T02:02:10.788Z,13.79
2022-10-04T02:03:10.774Z,13.90
2022-10-04T02:04:10.838Z,13.80
2022-10-04T02:05:10.734Z,13.86
2022-10-04T02:06:10.716Z,13.85
2022-10-04T02:07:10.698Z,13.75
2022-10-04T02:08:10.677Z,13.79
2022-10-04T02:09:10.656Z,13.80
2022-10-04T02:10:10.639Z,13.67
2022-10-04T02:11:10.622Z,13.78
2022-10-04T02:12:10.603Z,13.67
2022-10-04T02:13:10.602Z,13.63
2022-10-04T02:14:10.563Z,13.78
2022-10-04T02:15:10.547Z,13.85
2022-10-04T02:16:10.601Z,13.75
2022-10-04T02:17:10.649Z,13.63
2022-10-04T02:18:10.491Z,13.64
2022-10-04T02:19:10.472Z,13.57
2022-10-04T02:20:10.451Z,13.51
2022-10-04T02:21:10.440Z,13.47
2022-10-04T02:22:10.417Z,13.46
2022-10-04T02:23:10.398Z,13.47
2022-10-04T02:24:10.378Z,13.39
2022-10-04T02:25:10.358Z,13.49
2022-10-04T02:26:10.341Z,13.47
2022-10-04T02:27:10.322Z,13.53
2022-10-04T02:28:10.337Z,13.49
2022-10-04T02:29:10.303Z,13.55
2022-10-04T02:30:10.269Z,13.60
2022-10-04T02:31:10.311Z,13.58
2022-10-04T02:32:10.228Z,13.55
2022-10-04T02:33:10.209Z,13.54
2022-10-04T02:34:10.192Z,13.55
2022-10-04T02:35:10.173Z,13.57
2022-10-04T02:36:10.152Z,13.53
2022-10-04T02:37:10.131Z,13.53
2022-10-04T02:38:10.121Z,13.47
2022-10-04T02:39:10.099Z,13.53
2022-10-04T02:40:10.075Z,13.53
2022-10-04T02:41:10.060Z,13.49
2022-10-04T02:42:10.038Z,13.60
2022-10-04T02:43:10.019Z,13.58
2022-10-04T02:44:10.005Z,13.53
2022-10-04T02:45:10.004Z,13.54
2022-10-04T02:46:10.035Z,13.46
2022-10-04T02:47:09.952Z,13.46
2022-10-04T02:48:09.935Z,13.40
2022-10-04T02:49:09.910Z,13.43
2022-10-04T02:50:09.894Z,13.36
2022-10-04T02:51:09.877Z,13.32
2022-10-04T02:52:09.853Z,13.29
2022-10-04T02:53:09.833Z,13.38
2022-10-04T02:54:09.817Z,13.39
2022-10-04T02:55:09.795Z,13.40
2022-10-04T02:56:09.773Z,13.35
2022-10-04T02:57:09.760Z,13.38
2022-10-04T02:58:09.741Z,13.30
2022-10-04T02:59:09.723Z,13.36
2022-10-04T03:00:09.710Z,13.21
2022-10-04T03:01:09.772Z,13.14
2022-10-04T03:02:09.721Z,13.14
2022-10-04T03:03:09.649Z,13.13
2022-10-04T03:04:09.628Z,13.14
2022-10-04T03:05:09.608Z,13.14
2022-10-04T03:06:09.591Z,13.23
2022-10-04T03:07:09.573Z,13.23
2022-10-04T03:08:09.549Z,13.19
2022-10-04T03:09:09.534Z,13.16
2022-10-04T03:10:09.517Z,13.26
2022-10-04T03:11:09.492Z,13.27
2022-10-04T03:12:09.474Z,13.38
2022-10-04T03:13:09.456Z,13.39
2022-10-04T03:14:09.434Z,13.29
2022-10-04T03:15:09.419Z,13.21
2022-10-04T03:16:09.501Z,13.13
2022-10-04T03:17:09.404Z,13.09
2022-10-04T03:18:09.362Z,13.24
2022-10-04T03:19:09.343Z,13.21
2022-10-04T03:20:09.325Z,13.17
2022-10-04T03:21:09.301Z,13.20
2022-10-04T03:22:09.285Z,13.16
2022-10-04T03:23:09.264Z,13.29
2022-10-04T03:24:09.249Z,13.21
2022-10-04T03:25:09.241Z,13.27
2022-10-04T03:26:09.222Z,13.39
2022-10-04T03:27:09.203Z,13.26
2022-10-04T03:28:09.269Z,13.36
2022-10-04T03:29:09.153Z,13.29
2022-10-04T03:30:09.133Z,13.27
2022-10-04T03:31:09.147Z,13.29
2022-10-04T03:32:09.097Z,13.26
2022-10-04T03:33:09.093Z,13.20
2022-10-04T03:34:09.058Z,13.20
2022-10-04T03:35:09.038Z,13.17
2022-10-04T03:36:09.015Z,12.99
2022-10-04T03:37:08.997Z,12.99
2022-10-04T03:38:08.981Z,13.05
2022-10-04T03:39:08.962Z,12.99
2022-10-04T03:40:08.937Z,12.96
2022-10-04T03:41:08.921Z,12.95
2022-10-04T03:42:08.907Z,12.98
2022-10-04T03:43:08.887Z,12.99
2022-10-04T03:44:08.863Z,12.91
2022-10-04T03:45:08.843Z,12.98
2022-10-04T03:46:08.898Z,12.98
2022-10-04T03:47:08.808Z,12.98
2022-10-04T03:48:08.788Z,13.08
2022-10-04T03:49:08.785Z,12.98
2022-10-04T03:50:08.753Z,12.95
2022-10-04T03:51:08.735Z,12.95
2022-10-04T03:52:08.714Z,12.96
2022-10-04T03:53:08.694Z,13.02
2022-10-04T03:54:08.675Z,12.96
2022-10-04T03:55:08.663Z,12.98
2022-10-04T03:56:08.638Z,12.96
2022-10-04T03:57:08.614Z,12.93
2022-10-04T03:58:08.596Z,13.01
2022-10-04T03:59:08.578Z,12.98
2022-10-04T04:00:08.572Z,13.02
2022-10-04T04:01:08.601Z,13.01
2022-10-04T04:02:08.615Z,12.99
2022-10-04T04:03:08.505Z,12.99
2022-10-04T04:04:08.490Z,12.98
2022-10-04T04:05:08.482Z,12.99
2022-10-04T04:06:08.445Z,13.01
2022-10-04T04:07:08.426Z,12.98
2022-10-04T04:08:08.404Z,12.99
2022-10-04T04:09:08.386Z,13.01
2022-10-04T04:10:10.270Z,12.99
2022-10-04T04:11:08.349Z,12.98
2022-10-04T04:12:08.326Z,12.93
2022-10-04T04:13:08.312Z,12.96
2022-10-04T04:14:08.288Z,13.01
2022-10-04T04:15:08.274Z,12.98
2022-10-04T04:16:08.285Z,12.90
2022-10-04T04:17:08.232Z,12.98
2022-10-04T04:18:08.220Z,12.80
2022-10-04T04:19:08.194Z,12.81
2022-10-04T04:20:08.179Z,12.86
2022-10-04T04:21:08.187Z,12.99
2022-10-04T04:22:08.138Z,12.91
2022-10-04T04:23:08.120Z,12.93
2022-10-04T04:24:08.102Z,12.91
2022-10-04T04:25:08.080Z,12.88
2022-10-04T04:26:08.073Z,12.80
2022-10-04T04:27:08.040Z,12.91
2022-10-04T04:28:08.057Z,12.93
2022-10-04T04:29:08.006Z,12.95
2022-10-04T04:30:07.982Z,12.96
2022-10-04T04:31:07.966Z,12.98
2022-10-04T04:32:07.996Z,12.88
2022-10-04T04:33:07.924Z,12.79
2022-10-04T04:34:07.909Z,12.80
2022-10-04T04:35:07.894Z,12.76
2022-10-04T04:36:07.867Z,12.73
2022-10-04T04:37:07.866Z,12.72
2022-10-04T04:38:07.827Z,12.72
2022-10-04T04:39:07.810Z,12.65
2022-10-04T04:40:07.790Z,12.68
2022-10-04T04:41:07.772Z,12.62
2022-10-04T04:42:07.758Z,12.76
2022-10-04T04:43:07.736Z,12.72
2022-10-04T04:44:07.716Z,12.76
2022-10-04T04:45:07.695Z,12.77
2022-10-04T04:46:26.774Z,12.73
2022-10-04T04:47:07.658Z,12.77
2022-10-04T04:48:07.639Z,12.72
2022-10-04T04:49:07.620Z,12.72
2022-10-04T04:50:07.601Z,12.77
2022-10-04T04:51:07.577Z,12.76
2022-10-04T04:52:07.559Z,12.76
2022-10-04T04:53:07.561Z,12.76
2022-10-04T04:54:07.520Z,12.77
2022-10-04T04:55:07.498Z,12.72
2022-10-04T04:56:10.594Z,12.72
2022-10-04T04:57:07.458Z,12.72
2022-10-04T04:58:07.446Z,12.69
2022-10-04T04:59:07.431Z,12.68
2022-10-04T05:00:07.405Z,12.71
2022-10-04T05:01:07.510Z,12.68
2022-10-04T05:02:07.448Z,12.69
2022-10-04T05:03:07.347Z,12.63
2022-10-04T05:04:07.325Z,12.69
2022-10-04T05:05:07.309Z,12.76
2022-10-04T05:06:07.287Z,12.65
2022-10-04T05:07:07.289Z,12.68
2022-10-04T05:08:07.248Z,12.65
2022-10-04T05:09:07.247Z,12.63
2022-10-04T05:10:07.216Z,12.50
2022-10-04T05:11:07.193Z,12.50
2022-10-04T05:12:07.177Z,12.61
2022-10-04T05:13:07.152Z,12.51
2022-10-04T05:14:07.135Z,12.55
2022-10-04T05:15:07.173Z,12.41
2022-10-04T05:16:07.164Z,12.44
2022-10-04T05:17:07.073Z,12.41
2022-10-04T05:18:07.059Z,12.33
2022-10-04T05:19:07.041Z,12.29
2022-10-04T05:20:07.023Z,12.28
2022-10-04T05:21:06.997Z,12.29
2022-10-04T05:22:06.981Z,12.33
2022-10-04T05:23:06.963Z,12.30
2022-10-04T05:24:06.944Z,12.32
2022-10-04T05:25:06.938Z,12.29
2022-10-04T05:26:06.901Z,12.35
2022-10-04T05:27:06.878Z,12.35
2022-10-04T05:28:07.009Z,12.30
2022-10-04T05:29:06.845Z,12.21
2022-10-04T05:30:06.827Z,12.18
2022-10-04T05:31:06.803Z,12.14
2022-10-04T05:32:06.850Z,12.03
2022-10-04T05:33:06.764Z,12.05
2022-10-04T05:34:06.741Z,11.96
2022-10-04T05:35:06.723Z,12.13
2022-10-04T05:36:06.714Z,12.21
2022-10-04T05:37:06.687Z,12.15
2022-10-04T05:38:06.663Z,12.17
2022-10-04T05:39:06.648Z,12.18
2022-10-04T05:40:06.626Z,12.18
2022-10-04T05:41:06.628Z,12.26
2022-10-04T05:42:06.593Z,12.29
2022-10-04T05:43:06.572Z,12.22
2022-10-04T05:44:06.550Z,12.25
2022-10-04T05:45:06.530Z,12.25
2022-10-04T05:46:06.589Z,12.29
2022-10-04T05:47:06.489Z,12.32
2022-10-04T05:48:06.472Z,12.33
2022-10-04T05:49:06.449Z,12.25
2022-10-04T05:50:06.428Z,12.30
2022-10-04T05:51:06.416Z,12.26
2022-10-04T05:52:06.398Z,12.25
2022-10-04T05:53:06.375Z,12.26
2022-10-04T05:54:06.356Z,12.15
2022-10-04T05:55:06.333Z,12.26
2022-10-04T05:56:06.320Z,12.21
2022-10-04T05:57:06.326Z,12.35
2022-10-04T05:58:06.271Z,12.32
2022-10-04T05:59:06.253Z,12.32
2022-10-04T06:00:06.237Z,12.32
2022-10-04T06:01:06.278Z,12.29
2022-10-04T06:02:06.228Z,12.13
2022-10-04T06:03:06.179Z,12.05
2022-10-04T06:04:06.157Z,12.21
2022-10-04T06:05:06.143Z,12.18
2022-10-04T06:06:06.118Z,12.21
2022-10-04T06:07:06.095Z,12.26
2022-10-04T06:08:06.082Z,12.32
2022-10-04T06:09:06.062Z,12.33
2022-10-04T06:10:06.042Z,12.40
2022-10-04T06:11:06.023Z,12.48
2022-10-04T06:12:06.005Z,12.48
2022-10-04T06:13:06.001Z,12.44
2022-10-04T06:14:05.963Z,12.44
2022-10-04T06:15:05.943Z,12.48
2022-10-04T06:16:05.923Z,12.44
2022-10-04T06:17:06.024Z,12.58
2022-10-04T06:18:05.887Z,12.59
2022-10-04T06:19:05.869Z,12.63
2022-10-04T06:20:05.848Z,12.62
2022-10-04T06:21:05.827Z,12.61
2022-10-04T06:22:05.814Z,12.62
2022-10-04T06:23:05.791Z,12.68
2022-10-04T06:24:05.768Z,12.68
2022-10-04T06:25:05.753Z,12.62
2022-10-04T06:26:05.733Z,12.72
2022-10-04T06:27:05.713Z,12.63
2022-10-04T06:28:05.710Z,12.65
2022-10-04T06:29:05.700Z,12.65
2022-10-04T06:30:05.657Z,12.62
2022-10-04T06:31:05.673Z,12.69
2022-10-04T06:32:05.616Z,12.65
2022-10-04T06:33:05.597Z,12.72
2022-10-04T06:34:05.580Z,12.63
2022-10-04T06:35:05.559Z,12.79
2022-10-04T06:36:05.540Z,13.06
2022-10-04T06:37:05.523Z,13.04
2022-10-04T06:38:05.503Z,12.96
2022-10-04T06:39:05.483Z,12.86
2022-10-04T06:40:05.466Z,12.81
2022-10-04T06:41:05.445Z,12.87
2022-10-04T06:42:05.433Z,12.96
2022-10-04T06:43:05.411Z,13.05
2022-10-04T06:44:05.402Z,13.02
2022-10-04T06:45:05.394Z,13.11
2022-10-04T06:46:05.429Z,13.14
2022-10-04T06:47:05.337Z,13.21
2022-10-04T06:48:05.321Z,13.39
2022-10-04T06:49:05.310Z,13.53
2022-10-04T06:50:05.285Z,13.75
2022-10-04T06:51:05.271Z,13.82
2022-10-04T06:52:05.249Z,14.04
2022-10-04T06:53:05.230Z,14.41
2022-10-04T06:54:05.217Z,14.19
2022-10-04T06:55:05.198Z,14.15
2022-10-04T06:56:05.183Z,14.19
2022-10-04T06:57:05.174Z,14.19
2022-10-04T06:58:05.150Z,14.55
2022-10-04T06:59:05.134Z,14.58
2022-10-04T07:00:05.116Z,14.36
2022-10-04T07:01:05.182Z,14.77
2022-10-04T07:02:05.154Z,14.95
2022-10-04T07:03:05.074Z,15.29
2022-10-04T07:04:05.062Z,15.54
2022-10-04T07:05:09.375Z,15.70
2022-10-04T07:06:05.054Z,15.87
2022-10-04T07:07:05.015Z,16.09
2022-10-04T07:08:05.006Z,16.43
2022-10-04T07:09:04.990Z,16.57
2022-10-04T07:10:04.981Z,16.52
2022-10-04T07:11:07.302Z,16.34
2022-10-04T07:12:04.950Z,16.51
2022-10-04T07:13:04.938Z,16.43
2022-10-04T07:14:04.924Z,16.54
2022-10-04T07:15:04.912Z,16.08
2022-10-04T07:16:05.028Z,15.65
2022-10-04T07:17:04.919Z,15.66
2022-10-04T07:18:04.876Z,15.80
2022-10-04T07:19:04.860Z,15.88
2022-10-04T07:20:04.846Z,16.08
2022-10-04T07:21:04.835Z,16.32
2022-10-04T07:22:04.823Z,15.91
2022-10-04T07:23:04.811Z,15.65
2022-10-04T07:24:04.792Z,15.56
2022-10-04T07:25:04.780Z,15.78
2022-10-04T07:26:04.769Z,15.56
2022-10-04T07:27:04.755Z,15.62
2022-10-04T07:28:04.771Z,15.50
2022-10-04T07:29:04.730Z,15.40
2022-10-04T07:30:04.716Z,15.59
2022-10-04T07:31:04.801Z,15.66
2022-10-04T07:32:04.692Z,15.70
2022-10-04T07:33:04.696Z,15.52
2022-10-04T07:34:04.661Z,15.78
2022-10-04T07:35:04.654Z,16.25
2022-10-04T07:36:04.640Z,16.33
2022-10-04T07:37:04.627Z,16.57
2022-10-04T07:38:04.611Z,16.87
2022-10-04T07:39:04.598Z,17.17
2022-10-04T07:40:04.591Z,17.43
2022-10-04T07:41:04.572Z,17.68
2022-10-04T07:42:04.563Z,17.86
2022-10-04T07:43:04.547Z,18.11
2022-10-04T07:44:04.541Z,18.39
2022-10-04T07:45:04.521Z,18.42
2022-10-04T07:46:04.523Z,18.56
2022-10-04T07:47:04.494Z,18.75
2022-10-04T07:48:04.481Z,19.05
2022-10-04T07:49:04.501Z,19.34
2022-10-04T07:50:04.460Z,18.79
2022-10-04T07:51:04.447Z,19.05
2022-10-04T07:52:04.438Z,18.74
2022-10-04T07:53:08.650Z,18.78
2022-10-04T07:54:04.415Z,18.76
2022-10-04T07:55:04.417Z,18.70
2022-10-04T07:56:04.389Z,18.66
2022-10-04T07:57:04.378Z,18.83
2022-10-04T07:58:04.365Z,18.36
2022-10-04T07:59:04.353Z,18.06
2022-10-04T08:00:04.345Z,18.26
2022-10-04T08:01:04.336Z,18.45
2022-10-04T08:02:04.395Z,18.31
2022-10-04T08:03:04.388Z,18.27
2022-10-04T08:04:04.294Z,17.78
2022-10-04T08:05:04.305Z,17.62
2022-10-04T08:06:04.271Z,17.83
2022-10-04T08:07:04.255Z,18.18
2022-10-04T08:08:04.253Z,18.41
2022-10-04T08:09:04.232Z,18.45
2022-10-04T08:10:04.224Z,18.52
2022-10-04T08:11:04.212Z,18.63
2022-10-04T08:12:04.198Z,19.13
2022-10-04T08:13:04.199Z,18.98
2022-10-04T08:14:04.176Z,19.23
2022-10-04T08:15:04.157Z,19.54
2022-10-04T08:16:04.361Z,19.41
2022-10-04T08:17:04.139Z,19.04
2022-10-04T08:18:04.124Z,18.94
2022-10-04T08:19:04.118Z,18.85
2022-10-04T08:20:04.106Z,18.71
2022-10-04T08:21:04.116Z,18.97
2022-10-04T08:22:04.078Z,19.42
2022-10-04T08:23:04.066Z,20.36
2022-10-04T08:24:04.058Z,21.22
2022-10-04T08:25:04.043Z,22.04
2022-10-04T08:26:04.039Z,22.12
2022-10-04T08:27:04.025Z,21.26
2022-10-04T08:28:04.082Z,22.33
2022-10-04T08:29:04.005Z,22.99
2022-10-04T08:30:03.997Z,23.49
2022-10-04T08:31:04.036Z,24.25
2022-10-04T08:32:05.388Z,25.04
2022-10-04T08:33:03.968Z,25.58
2022-10-04T08:34:03.963Z,26.48
2022-10-04T08:35:03.950Z,26.89
2022-10-04T08:36:03.948Z,27.10
2022-10-04T08:37:03.962Z,27.10
2022-10-04T08:38:03.936Z,27.61
2022-10-04T08:39:03.941Z,27.79
2022-10-04T08:40:03.928Z,28.25
2022-10-04T08:41:03.916Z,28.87
2022-10-04T08:42:03.917Z,28.56
2022-10-04T08:43:03.904Z,28.72
2022-10-04T08:44:03.901Z,28.53
2022-10-04T08:45:03.899Z,27.85
2022-10-04T08:46:03.944Z,27.37
2022-10-04T08:47:03.896Z,27.79
2022-10-04T08:48:03.887Z,27.16
2022-10-04T08:49:03.889Z,27.61
2022-10-04T08:50:03.899Z,26.33
2022-10-04T08:51:03.879Z,26.64
2022-10-04T08:52:03.874Z,26.36
2022-10-04T08:53:07.418Z,27.25
2022-10-04T08:54:03.880Z,27.72
2022-10-04T08:55:03.868Z,28.17
2022-10-04T08:56:03.866Z,28.54
2022-10-04T08:57:03.866Z,28.07
2022-10-04T08:58:03.863Z,27.70
2022-10-04T08:59:03.861Z,28.65
2022-10-04T09:00:03.855Z,29.43
2022-10-04T09:01:03.899Z,29.25
2022-10-04T09:02:03.866Z,29.81
2022-10-04T09:03:03.955Z,29.96
2022-10-04T09:04:03.847Z,30.08
2022-10-04T09:05:03.844Z,30.05
2022-10-04T09:06:03.851Z,30.17
2022-10-04T09:07:03.841Z,30.62
2022-10-04T09:08:03.840Z,30.53
2022-10-04T09:09:03.868Z,30.70
2022-10-04T09:10:03.836Z,30.71
2022-10-04T09:11:03.830Z,30.68
2022-10-04T09:12:03.837Z,30.97
2022-10-04T09:13:03.827Z,31.07
2022-10-04T09:14:03.825Z,28.96
2022-10-04T09:15:03.828Z,29.31
2022-10-04T09:16:03.879Z,28.68
2022-10-04T09:17:03.814Z,28.89
2022-10-04T09:18:03.817Z,28.68
2022-10-04T09:19:03.813Z,29.39
2022-10-04T09:20:26.364Z,28.15
2022-10-04T09:21:03.804Z,28.59
2022-10-04T09:22:03.804Z,27.72
2022-10-04T09:23:06.358Z,27.75
2022-10-04T09:24:03.800Z,27.79
2022-10-04T09:25:03.839Z,27.98
2022-10-04T09:26:03.790Z,28.10
2022-10-04T09:27:03.792Z,28.44
2022-10-04T09:28:03.822Z,29.41
2022-10-04T09:29:05.134Z,29.73
2022-10-04T09:30:03.779Z,30.43
2022-10-04T09:31:03.819Z,30.29
2022-10-04T09:32:03.767Z,30.24
2022-10-04T09:33:03.760Z,29.80
2022-10-04T09:34:03.769Z,29.61
2022-10-04T09:35:03.761Z,29.89
2022-10-04T09:36:03.746Z,29.12
2022-10-04T09:37:03.743Z,28.49
2022-10-04T09:38:03.737Z,28.79
2022-10-04T09:39:28.603Z,29.06
2022-10-04T09:40:03.730Z,29.39
2022-10-04T09:41:03.807Z,27.80
2022-10-04T09:42:03.718Z,27.50
2022-10-04T09:43:03.716Z,26.80
2022-10-04T09:44:03.712Z,27.66
2022-10-04T09:45:03.704Z,28.15
2022-10-04T09:46:03.779Z,26.38
2022-10-04T09:47:03.697Z,26.71
2022-10-04T09:48:03.684Z,26.90
2022-10-04T09:49:03.683Z,27.45
2022-10-04T09:50:03.672Z,27.79
2022-10-04T09:51:03.670Z,27.66
2022-10-04T09:52:03.661Z,28.35
2022-10-04T09:53:03.666Z,28.53
2022-10-04T09:54:03.655Z,27.82
2022-10-04T09:55:03.643Z,27.22
2022-10-04T09:56:03.637Z,27.37
2022-10-04T09:57:03.697Z,27.85
2022-10-04T09:58:03.623Z,26.85
2022-10-04T09:59:03.618Z,26.51
2022-10-04T10:00:03.611Z,25.92
2022-10-04T10:01:03.602Z,26.49
2022-10-04T10:02:03.629Z,26.94
2022-10-04T10:03:03.733Z,26.64
2022-10-04T10:04:03.586Z,26.75
2022-10-04T10:05:03.571Z,26.58
2022-10-04T10:06:03.579Z,26.98
2022-10-04T10:07:03.558Z,26.97
2022-10-04T10:08:03.549Z,27.45
2022-10-04T10:09:03.547Z,27.68
2022-10-04T10:10:03.535Z,27.27
2022-10-04T10:11:03.529Z,27.10
2022-10-04T10:12:03.519Z,26.97
2022-10-04T10:13:03.532Z,24.93
2022-10-04T10:14:03.511Z,25.41
2022-10-04T10:15:03.501Z,25.67
2022-10-04T10:16:03.526Z,25.93
2022-10-04T10:17:03.480Z,26.23
2022-10-04T10:18:03.472Z,26.31
2022-10-04T10:19:03.462Z,25.73
2022-10-04T10:20:03.455Z,25.89
2022-10-04T10:21:03.448Z,26.27
2022-10-04T10:22:03.446Z,25.83
2022-10-04T10:23:03.430Z,25.86
2022-10-04T10:24:03.426Z,25.30
2022-10-04T10:25:03.417Z,24.94
2022-10-04T10:26:03.407Z,25.49
2022-10-04T10:27:03.402Z,25.58
2022-10-04T10:28:03.470Z,26.10
2022-10-04T10:29:03.465Z,25.88
2022-10-04T10:30:03.378Z,26.23
2022-10-04T10:31:03.400Z,26.42
2022-10-04T10:32:03.364Z,26.41
2022-10-04T10:33:03.348Z,25.92
2022-10-04T10:34:03.342Z,26.05
2022-10-04T10:35:03.331Z,26.31
2022-10-04T10:36:03.324Z,25.89
2022-10-04T10:37:03.315Z,25.92
2022-10-04T10:38:04.756Z,25.53
2022-10-04T10:39:03.300Z,25.70
2022-10-04T10:40:03.300Z,25.64
2022-10-04T10:41:03.284Z,24.97
2022-10-04T10:42:03.276Z,25.19
2022-10-04T10:43:03.274Z,25.43
2022-10-04T10:44:03.252Z,25.26
2022-10-04T10:45:03.392Z,25.43
2022-10-04T10:46:03.292Z,25.58
2022-10-04T10:47:03.276Z,25.89
2022-10-04T10:48:03.220Z,26.08
2022-10-04T10:49:03.220Z,26.00
2022-10-04T10:50:03.207Z,26.12
2022-10-04T10:51:03.195Z,26.23
2022-10-04T10:52:03.182Z,26.48
2022-10-04T10:53:03.169Z,26.21
2022-10-04T10:54:03.166Z,26.03
2022-10-04T10:55:03.156Z,26.07
2022-10-04T10:56:03.146Z,26.12
2022-10-04T10:57:03.136Z,26.11
2022-10-04T10:58:03.129Z,26.26
2022-10-04T10:59:03.118Z,25.56
2022-10-04T11:00:03.110Z,25.64
2022-10-04T11:01:03.120Z,25.74
2022-10-04T11:02:03.211Z,26.04
2022-10-04T11:03:12.673Z,26.24
2022-10-04T11:04:03.109Z,26.52
2022-10-04T11:05:03.065Z,26.60
2022-10-04T11:06:03.067Z,26.67
2022-10-04T11:07:03.046Z,26.76
2022-10-04T11:08:03.034Z,26.52
2022-10-04T11:09:03.024Z,26.11
2022-10-04T11:10:03.013Z,25.61
2022-10-04T11:11:03.018Z,25.52
2022-10-04T11:12:02.995Z,25.68
2022-10-04T11:13:02.990Z,25.45
2022-10-04T11:14:02.986Z,24.78
2022-10-04T11:15:02.971Z,24.66
2022-10-04T11:16:03.068Z,24.58
2022-10-04T11:17:02.971Z,23.84
2022-10-04T11:18:02.939Z,23.29
2022-10-04T11:19:02.929Z,23.82
2022-10-04T11:20:02.924Z,24.23
2022-10-04T11:21:02.910Z,24.60
2022-10-04T11:22:02.901Z,25.00
2022-10-04T11:23:02.887Z,25.45
2022-10-04T11:24:02.877Z,25.85
2022-10-04T11:25:02.865Z,26.10
2022-10-04T11:26:02.857Z,25.46
2022-10-04T11:27:02.846Z,25.59
2022-10-04T11:28:02.896Z,25.28
2022-10-04T11:29:02.830Z,24.84
2022-10-04T11:30:02.823Z,24.66
2022-10-04T11:31:02.902Z,24.29
2022-10-04T11:32:02.801Z,24.65
2022-10-04T11:33:02.904Z,24.93
2022-10-04T11:34:02.794Z,25.19
2022-10-04T11:35:02.794Z,25.45
2022-10-04T11:36:02.772Z,25.70
2022-10-04T11:37:02.755Z,26.01
2022-10-04T11:38:02.746Z,25.19
2022-10-04T11:39:02.744Z,24.43
2022-10-04T11:40:02.719Z,24.22
2022-10-04T11:41:02.705Z,24.44
2022-10-04T11:42:02.700Z,24.59
2022-10-04T11:43:02.691Z,24.90
2022-10-04T11:44:02.677Z,24.70
2022-10-04T11:45:02.676Z,24.89
2022-10-04T11:46:05.276Z,25.09
2022-10-04T11:47:02.723Z,25.30
2022-10-04T11:48:02.645Z,25.64
2022-10-04T11:49:02.645Z,25.45
2022-10-04T11:50:02.616Z,25.48
2022-10-04T11:51:02.605Z,25.59
2022-10-04T11:52:02.916Z,25.75
2022-10-04T11:53:02.584Z,25.95
2022-10-04T11:54:02.575Z,26.04
2022-10-04T11:55:02.565Z,25.66
2022-10-04T11:56:02.556Z,25.59
2022-10-04T11:57:02.542Z,25.34
2022-10-04T11:58:02.536Z,25.15
2022-10-04T11:59:02.528Z,25.33
2022-10-04T12:00:02.520Z,25.55
2022-10-04T12:01:02.506Z,25.53
2022-10-04T12:02:02.506Z,25.82
2022-10-04T12:03:02.485Z,25.45
2022-10-04T12:04:02.604Z,24.99
2022-10-04T12:05:02.483Z,25.06
2022-10-04T12:06:02.455Z,24.85
2022-10-04T12:07:02.443Z,24.97
2022-10-04T12:08:02.441Z,25.11
2022-10-04T12:09:02.423Z,24.97
2022-10-04T12:10:02.416Z,25.33
2022-10-04T12:11:02.401Z,25.23
2022-10-04T12:12:02.391Z,25.00
2022-10-04T12:13:02.378Z,24.89
2022-10-04T12:14:02.371Z,24.86
2022-10-04T12:15:02.360Z,24.44
2022-10-04T12:16:02.392Z,24.68
2022-10-04T12:17:02.336Z,24.62
2022-10-04T12:18:02.344Z,24.51
2022-10-04T12:19:02.321Z,24.79
2022-10-04T12:20:02.307Z,24.97
2022-10-04T12:21:02.324Z,25.22
2022-10-04T12:22:02.288Z,24.65
2022-10-04T12:23:02.283Z,24.37
2022-10-04T12:24:02.266Z,24.53
2022-10-04T12:25:02.256Z,24.66
2022-10-04T12:26:02.249Z,24.93
2022-10-04T12:27:02.236Z,25.12
2022-10-04T12:28:02.293Z,25.30
2022-10-04T12:29:02.211Z,24.29
2022-10-04T12:30:02.207Z,24.66
2022-10-04T12:31:02.194Z,24.94
2022-10-04T12:32:02.290Z,25.22
2022-10-04T12:33:02.171Z,25.63
2022-10-04T12:34:02.172Z,25.81
2022-10-04T12:35:02.156Z,25.88
2022-10-04T12:36:02.143Z,25.46
2022-10-04T12:37:02.153Z,25.73
2022-10-04T12:38:02.127Z,25.71
2022-10-04T12:39:02.113Z,25.83
2022-10-04T12:40:02.112Z,25.73
2022-10-04T12:41:02.097Z,25.81
2022-10-04T12:42:02.086Z,25.58
2022-10-04T12:43:02.075Z,25.66
2022-10-04T12:44:02.059Z,25.90
2022-10-04T12:45:02.047Z,25.93
2022-10-04T12:46:02.092Z,26.01
2022-10-04T12:47:02.034Z,25.98
2022-10-04T12:48:02.019Z,26.04
2022-10-04T12:49:02.009Z,25.98
2022-10-04T12:50:02.004Z,26.00
2022-10-04T12:51:01.989Z,26.01
2022-10-04T12:52:01.980Z,26.03